sensor_id;sensor_type;location;lat;lon;timestamp;temperature;humidity
21459;DHT22;10891;49.350;19.386;2023-04-24T00:01:21;6.30;99.90
21459;DHT22;10891;49.350;19.386;2023-04-24T00:03:48;6.30;99.90
21459;DHT22;10891;49.350;19.386;2023-04-24T00:06:15;6.30;99.90
21459;DHT22;10891;49.350;19.386;2023-04-24T00:08:43;6.20;99.90
21459;DHT22;10891;49.350;19.386;2023-04-24T00:11:11;6.20;99.90
21459;DHT22;10891;49.350;19.386;2023-04-24T00:13:38;6.10;99.90
21459;DHT22;10891;49.350;19.386;2023-04-24T00:16:05;6.10;99.90
21459;DHT22;10891;49.350;19.386;2023-04-24T00:18:32;6.00;99.90
21459;DHT22;10891;49.350;19.386;2023-04-24T00:20:59;6.00;99.90
21459;DHT22;10891;49.350;19.386;2023-04-24T00:23:26;6.00;99.90
21459;DHT22;10891;49.350;19.386;2023-04-24T00:25:53;5.90;99.90
21459;DHT22;10891;49.350;19.386;2023-04-24T00:28:21;5.90;99.90
21459;DHT22;10891;49.350;19.386;2023-04-24T00:30:48;5.90;99.90
21459;DHT22;10891;49.350;19.386;2023-04-24T00:33:15;5.80;99.90
21459;DHT22;10891;49.350;19.386;2023-04-24T00:35:42;5.80;99.90
21459;DHT22;10891;49.350;19.386;2023-04-24T00:38:09;5.60;99.90
21459;DHT22;10891;49.350;19.386;2023-04-24T00:40:35;5.40;99.90
21459;DHT22;10891;49.350;19.386;2023-04-24T00:43:02;5.40;99.90
21459;DHT22;10891;49.350;19.386;2023-04-24T00:45:31;5.30;99.90
21459;DHT22;10891;49.350;19.386;2023-04-24T00:47:58;5.30;99.90
21459;DHT22;10891;49.350;19.386;2023-04-24T00:50:27;5.30;99.90
21459;DHT22;10891;49.350;19.386;2023-04-24T00:52:54;5.20;99.90
21459;DHT22;10891;49.350;19.386;2023-04-24T00:55:21;5.00;99.90
21459;DHT22;10891;49.350;19.386;2023-04-24T00:57:48;4.90;99.90
21459;DHT22;10891;49.350;19.386;2023-04-24T01:00:16;4.90;99.90
21459;DHT22;10891;49.350;19.386;2023-04-24T01:02:45;4.90;99.90
21459;DHT22;10891;49.350;19.386;2023-04-24T01:05:12;4.90;99.90
21459;DHT22;10891;49.350;19.386;2023-04-24T01:07:43;4.80;99.90
21459;DHT22;10891;49.350;19.386;2023-04-24T01:10:11;4.80;99.90
21459;DHT22;10891;49.350;19.386;2023-04-24T01:12:39;4.80;99.90
21459;DHT22;10891;49.350;19.386;2023-04-24T01:15:07;4.80;99.90
21459;DHT22;10891;49.350;19.386;2023-04-24T01:17:34;4.70;99.90
21459;DHT22;10891;49.350;19.386;2023-04-24T01:20:03;4.60;99.90
21459;DHT22;10891;49.350;19.386;2023-04-24T01:22:33;4.60;99.90
21459;DHT22;10891;49.350;19.386;2023-04-24T01:25:00;4.50;99.90
21459;DHT22;10891;49.350;19.386;2023-04-24T01:27:27;4.50;99.90
21459;DHT22;10891;49.350;19.386;2023-04-24T01:29:54;4.30;99.90
21459;DHT22;10891;49.350;19.386;2023-04-24T01:32:21;4.20;99.90
21459;DHT22;10891;49.350;19.386;2023-04-24T01:34:48;4.20;99.90
21459;DHT22;10891;49.350;19.386;2023-04-24T01:37:15;4.10;99.90
21459;DHT22;10891;49.350;19.386;2023-04-24T01:39:44;4.10;99.90
21459;DHT22;10891;49.350;19.386;2023-04-24T01:42:12;4.10;99.90
21459;DHT22;10891;49.350;19.386;2023-04-24T01:44:40;4.10;99.90
21459;DHT22;10891;49.350;19.386;2023-04-24T01:47:07;4.10;99.90
21459;DHT22;10891;49.350;19.386;2023-04-24T01:49:34;4.10;99.90
21459;DHT22;10891;49.350;19.386;2023-04-24T01:52:01;4.10;99.90
21459;DHT22;10891;49.350;19.386;2023-04-24T01:54:28;4.10;99.90
21459;DHT22;10891;49.350;19.386;2023-04-24T01:56:57;4.00;99.90
21459;DHT22;10891;49.350;19.386;2023-04-24T01:59:25;4.00;99.90
21459;DHT22;10891;49.350;19.386;2023-04-24T02:01:53;3.90;99.90
21459;DHT22;10891;49.350;19.386;2023-04-24T02:04:20;3.90;99.90
21459;DHT22;10891;49.350;19.386;2023-04-24T02:06:47;3.90;99.90
21459;DHT22;10891;49.350;19.386;2023-04-24T02:09:14;4.00;99.90
21459;DHT22;10891;49.350;19.386;2023-04-24T02:11:41;4.00;99.90
21459;DHT22;10891;49.350;19.386;2023-04-24T02:14:09;4.00;99.90
21459;DHT22;10891;49.350;19.386;2023-04-24T02:16:36;4.00;99.90
21459;DHT22;10891;49.350;19.386;2023-04-24T02:19:03;4.00;99.90
21459;DHT22;10891;49.350;19.386;2023-04-24T02:21:30;4.00;99.90
21459;DHT22;10891;49.350;19.386;2023-04-24T02:23:57;4.00;99.90
21459;DHT22;10891;49.350;19.386;2023-04-24T02:26:24;4.10;99.90
21459;DHT22;10891;49.350;19.386;2023-04-24T02:28:51;4.20;99.90
21459;DHT22;10891;49.350;19.386;2023-04-24T02:31:19;4.20;99.90
21459;DHT22;10891;49.350;19.386;2023-04-24T02:33:46;4.20;99.90
21459;DHT22;10891;49.350;19.386;2023-04-24T02:36:13;4.30;99.90
21459;DHT22;10891;49.350;19.386;2023-04-24T02:38:40;4.30;99.90
21459;DHT22;10891;49.350;19.386;2023-04-24T02:41:07;4.20;99.90
21459;DHT22;10891;49.350;19.386;2023-04-24T02:43:34;4.30;99.90
21459;DHT22;10891;49.350;19.386;2023-04-24T02:46:01;4.30;99.90
21459;DHT22;10891;49.350;19.386;2023-04-24T02:48:29;4.50;99.90
21459;DHT22;10891;49.350;19.386;2023-04-24T02:50:56;4.50;99.90
21459;DHT22;10891;49.350;19.386;2023-04-24T02:53:23;4.70;99.90
21459;DHT22;10891;49.350;19.386;2023-04-24T02:55:50;4.80;99.90
21459;DHT22;10891;49.350;19.386;2023-04-24T02:58:17;4.90;99.90
21459;DHT22;10891;49.350;19.386;2023-04-24T03:00:45;5.00;99.90
21459;DHT22;10891;49.350;19.386;2023-04-24T03:03:12;5.10;99.90
21459;DHT22;10891;49.350;19.386;2023-04-24T03:05:42;5.10;99.90
21459;DHT22;10891;49.350;19.386;2023-04-24T03:08:08;5.00;99.90
21459;DHT22;10891;49.350;19.386;2023-04-24T03:10:35;5.00;99.90
21459;DHT22;10891;49.350;19.386;2023-04-24T03:13:02;5.00;99.90
21459;DHT22;10891;49.350;19.386;2023-04-24T03:15:29;5.00;99.90
21459;DHT22;10891;49.350;19.386;2023-04-24T03:17:56;5.00;99.90
21459;DHT22;10891;49.350;19.386;2023-04-24T03:20:23;5.00;99.90
21459;DHT22;10891;49.350;19.386;2023-04-24T03:22:51;5.00;99.90
21459;DHT22;10891;49.350;19.386;2023-04-24T03:25:18;5.10;99.90
21459;DHT22;10891;49.350;19.386;2023-04-24T03:27:45;5.10;99.90
21459;DHT22;10891;49.350;19.386;2023-04-24T03:30:12;5.20;99.90
21459;DHT22;10891;49.350;19.386;2023-04-24T03:32:39;5.40;99.90
21459;DHT22;10891;49.350;19.386;2023-04-24T03:35:07;5.60;99.90
21459;DHT22;10891;49.350;19.386;2023-04-24T03:37:34;5.70;99.90
21459;DHT22;10891;49.350;19.386;2023-04-24T03:40:02;5.80;99.90
21459;DHT22;10891;49.350;19.386;2023-04-24T03:42:31;5.70;99.90
21459;DHT22;10891;49.350;19.386;2023-04-24T03:44:58;5.70;99.90
21459;DHT22;10891;49.350;19.386;2023-04-24T03:47:25;5.60;99.90
21459;DHT22;10891;49.350;19.386;2023-04-24T03:49:52;5.80;99.90
21459;DHT22;10891;49.350;19.386;2023-04-24T03:52:20;5.80;99.90
21459;DHT22;10891;49.350;19.386;2023-04-24T03:54:47;5.90;99.90
21459;DHT22;10891;49.350;19.386;2023-04-24T03:57:15;6.00;99.90
21459;DHT22;10891;49.350;19.386;2023-04-24T03:59:42;6.20;99.90
21459;DHT22;10891;49.350;19.386;2023-04-24T04:02:09;6.40;99.90
21459;DHT22;10891;49.350;19.386;2023-04-24T04:04:36;6.50;99.90
21459;DHT22;10891;49.350;19.386;2023-04-24T04:07:05;6.60;99.90
21459;DHT22;10891;49.350;19.386;2023-04-24T04:09:33;7.30;99.90
21459;DHT22;10891;49.350;19.386;2023-04-24T04:12:00;7.40;99.90
21459;DHT22;10891;49.350;19.386;2023-04-24T04:14:28;8.10;99.90
21459;DHT22;10891;49.350;19.386;2023-04-24T04:16:55;8.30;99.90
21459;DHT22;10891;49.350;19.386;2023-04-24T04:19:22;8.10;99.90
21459;DHT22;10891;49.350;19.386;2023-04-24T04:21:49;8.80;99.90
21459;DHT22;10891;49.350;19.386;2023-04-24T04:24:18;8.90;99.90
21459;DHT22;10891;49.350;19.386;2023-04-24T04:26:46;9.10;99.90
21459;DHT22;10891;49.350;19.386;2023-04-24T04:29:13;9.40;99.90
21459;DHT22;10891;49.350;19.386;2023-04-24T04:31:42;10.20;99.90
21459;DHT22;10891;49.350;19.386;2023-04-24T04:34:09;11.00;99.90
21459;DHT22;10891;49.350;19.386;2023-04-24T04:36:37;11.60;99.90
21459;DHT22;10891;49.350;19.386;2023-04-24T04:39:05;12.00;99.90
21459;DHT22;10891;49.350;19.386;2023-04-24T04:41:32;12.10;99.90
21459;DHT22;10891;49.350;19.386;2023-04-24T04:44:01;12.50;99.90
21459;DHT22;10891;49.350;19.386;2023-04-24T04:46:30;13.10;99.90
21459;DHT22;10891;49.350;19.386;2023-04-24T04:49:00;12.70;99.90
21459;DHT22;10891;49.350;19.386;2023-04-24T04:51:29;12.80;99.90
21459;DHT22;10891;49.350;19.386;2023-04-24T04:53:56;12.40;99.90
21459;DHT22;10891;49.350;19.386;2023-04-24T04:56:23;12.30;99.90
21459;DHT22;10891;49.350;19.386;2023-04-24T04:58:50;13.10;99.90
21459;DHT22;10891;49.350;19.386;2023-04-24T05:01:17;13.40;99.90
21459;DHT22;10891;49.350;19.386;2023-04-24T05:03:44;13.00;99.90
21459;DHT22;10891;49.350;19.386;2023-04-24T05:06:12;13.60;99.90
21459;DHT22;10891;49.350;19.386;2023-04-24T05:08:39;14.10;99.80
21459;DHT22;10891;49.350;19.386;2023-04-24T05:11:06;13.90;99.40
21459;DHT22;10891;49.350;19.386;2023-04-24T05:13:33;13.50;99.90
21459;DHT22;10891;49.350;19.386;2023-04-24T05:16:00;13.50;99.90
21459;DHT22;10891;49.350;19.386;2023-04-24T05:18:27;13.90;99.90
21459;DHT22;10891;49.350;19.386;2023-04-24T05:20:54;14.10;99.90
21459;DHT22;10891;49.350;19.386;2023-04-24T05:23:23;14.50;99.60
21459;DHT22;10891;49.350;19.386;2023-04-24T05:25:50;14.90;99.40
21459;DHT22;10891;49.350;19.386;2023-04-24T05:28:17;15.20;98.20
21459;DHT22;10891;49.350;19.386;2023-04-24T05:30:43;15.30;99.10
21459;DHT22;10891;49.350;19.386;2023-04-24T05:33:11;15.00;98.80
21459;DHT22;10891;49.350;19.386;2023-04-24T05:35:40;14.00;99.50
21459;DHT22;10891;49.350;19.386;2023-04-24T05:38:11;12.90;99.90
21459;DHT22;10891;49.350;19.386;2023-04-24T05:40:39;11.60;99.90
21459;DHT22;10891;49.350;19.386;2023-04-24T05:43:06;11.10;99.90
21459;DHT22;10891;49.350;19.386;2023-04-24T05:45:33;11.60;99.90
21459;DHT22;10891;49.350;19.386;2023-04-24T05:48:01;12.70;99.90
21459;DHT22;10891;49.350;19.386;2023-04-24T05:50:28;11.70;99.90
21459;DHT22;10891;49.350;19.386;2023-04-24T05:52:55;12.30;99.90
21459;DHT22;10891;49.350;19.386;2023-04-24T05:55:23;13.20;99.90
21459;DHT22;10891;49.350;19.386;2023-04-24T05:57:55;14.00;99.90
21459;DHT22;10891;49.350;19.386;2023-04-24T06:00:23;13.50;99.90
21459;DHT22;10891;49.350;19.386;2023-04-24T06:02:54;12.80;99.90
21459;DHT22;10891;49.350;19.386;2023-04-24T06:05:21;12.80;99.90
21459;DHT22;10891;49.350;19.386;2023-04-24T06:07:48;13.60;99.90
21459;DHT22;10891;49.350;19.386;2023-04-24T06:10:18;14.80;99.90
21459;DHT22;10891;49.350;19.386;2023-04-24T06:12:45;14.50;99.90
21459;DHT22;10891;49.350;19.386;2023-04-24T06:15:13;14.50;99.90
21459;DHT22;10891;49.350;19.386;2023-04-24T06:17:40;14.50;99.90
21459;DHT22;10891;49.350;19.386;2023-04-24T06:20:08;15.00;99.90
21459;DHT22;10891;49.350;19.386;2023-04-24T06:22:36;15.20;99.20
21459;DHT22;10891;49.350;19.386;2023-04-24T06:25:06;15.40;99.70
21459;DHT22;10891;49.350;19.386;2023-04-24T06:27:33;15.80;98.80
21459;DHT22;10891;49.350;19.386;2023-04-24T06:30:00;16.20;99.10
21459;DHT22;10891;49.350;19.386;2023-04-24T06:32:29;16.10;99.20
21459;DHT22;10891;49.350;19.386;2023-04-24T06:34:56;16.40;98.90
21459;DHT22;10891;49.350;19.386;2023-04-24T06:37:23;17.10;99.10
21459;DHT22;10891;49.350;19.386;2023-04-24T06:39:50;16.70;98.50
21459;DHT22;10891;49.350;19.386;2023-04-24T06:42:17;16.20;99.30
21459;DHT22;10891;49.350;19.386;2023-04-24T06:44:46;15.90;99.60
21459;DHT22;10891;49.350;19.386;2023-04-24T06:47:13;16.20;99.90
21459;DHT22;10891;49.350;19.386;2023-04-24T06:49:41;16.20;99.90
21459;DHT22;10891;49.350;19.386;2023-04-24T06:52:08;16.60;98.80
21459;DHT22;10891;49.350;19.386;2023-04-24T06:54:36;17.30;96.10
21459;DHT22;10891;49.350;19.386;2023-04-24T06:57:03;17.90;95.40
21459;DHT22;10891;49.350;19.386;2023-04-24T06:59:30;18.00;95.00
21459;DHT22;10891;49.350;19.386;2023-04-24T07:01:57;18.20;94.40
21459;DHT22;10891;49.350;19.386;2023-04-24T07:04:24;18.40;94.10
21459;DHT22;10891;49.350;19.386;2023-04-24T07:06:52;18.40;93.90
21459;DHT22;10891;49.350;19.386;2023-04-24T07:09:21;18.40;93.10
21459;DHT22;10891;49.350;19.386;2023-04-24T07:11:49;18.40;93.00
21459;DHT22;10891;49.350;19.386;2023-04-24T07:14:17;18.50;93.30
21459;DHT22;10891;49.350;19.386;2023-04-24T07:16:44;18.60;93.40
21459;DHT22;10891;49.350;19.386;2023-04-24T07:19:12;18.80;93.10
21459;DHT22;10891;49.350;19.386;2023-04-24T07:21:39;19.00;93.00
21459;DHT22;10891;49.350;19.386;2023-04-24T07:24:07;19.30;92.30
21459;DHT22;10891;49.350;19.386;2023-04-24T07:26:37;19.60;92.20
21459;DHT22;10891;49.350;19.386;2023-04-24T07:29:04;19.60;91.90
21459;DHT22;10891;49.350;19.386;2023-04-24T07:31:31;19.50;92.50
21459;DHT22;10891;49.350;19.386;2023-04-24T07:33:58;19.60;92.40
21459;DHT22;10891;49.350;19.386;2023-04-24T07:36:25;19.80;92.00
21459;DHT22;10891;49.350;19.386;2023-04-24T07:38:54;19.70;92.50
21459;DHT22;10891;49.350;19.386;2023-04-24T07:41:23;19.70;91.90
21459;DHT22;10891;49.350;19.386;2023-04-24T07:43:51;19.90;92.10
21459;DHT22;10891;49.350;19.386;2023-04-24T07:46:18;19.60;92.70
21459;DHT22;10891;49.350;19.386;2023-04-24T07:48:45;19.70;92.30
21459;DHT22;10891;49.350;19.386;2023-04-24T07:51:13;19.70;92.20
21459;DHT22;10891;49.350;19.386;2023-04-24T07:53:40;19.70;92.20
21459;DHT22;10891;49.350;19.386;2023-04-24T07:56:07;19.50;92.30
21459;DHT22;10891;49.350;19.386;2023-04-24T07:58:36;19.20;92.90
21459;DHT22;10891;49.350;19.386;2023-04-24T08:01:03;19.00;92.90
21459;DHT22;10891;49.350;19.386;2023-04-24T08:03:30;18.90;93.00
21459;DHT22;10891;49.350;19.386;2023-04-24T08:05:57;18.80;93.10
21459;DHT22;10891;49.350;19.386;2023-04-24T08:08:24;18.70;92.90
21459;DHT22;10891;49.350;19.386;2023-04-24T08:10:52;18.70;92.80
21459;DHT22;10891;49.350;19.386;2023-04-24T08:13:19;18.30;93.50
21459;DHT22;10891;49.350;19.386;2023-04-24T08:15:47;18.50;93.60
21459;DHT22;10891;49.350;19.386;2023-04-24T08:18:14;18.50;93.10
21459;DHT22;10891;49.350;19.386;2023-04-24T08:20:41;18.90;93.00
21459;DHT22;10891;49.350;19.386;2023-04-24T08:23:08;19.10;92.80
21459;DHT22;10891;49.350;19.386;2023-04-24T08:25:35;19.30;92.50
21459;DHT22;10891;49.350;19.386;2023-04-24T08:28:02;19.40;92.00
21459;DHT22;10891;49.350;19.386;2023-04-24T08:30:32;19.10;91.80
21459;DHT22;10891;49.350;19.386;2023-04-24T08:33:01;19.40;92.20
21459;DHT22;10891;49.350;19.386;2023-04-24T08:35:28;19.60;92.10
21459;DHT22;10891;49.350;19.386;2023-04-24T08:37:54;19.70;91.70
21459;DHT22;10891;49.350;19.386;2023-04-24T08:40:26;19.60;92.20
21459;DHT22;10891;49.350;19.386;2023-04-24T08:42:55;19.20;92.10
21459;DHT22;10891;49.350;19.386;2023-04-24T08:45:23;19.30;92.90
21459;DHT22;10891;49.350;19.386;2023-04-24T08:47:52;19.30;92.50
21459;DHT22;10891;49.350;19.386;2023-04-24T08:50:21;19.20;92.50
21459;DHT22;10891;49.350;19.386;2023-04-24T08:52:50;19.30;92.50
21459;DHT22;10891;49.350;19.386;2023-04-24T08:55:19;19.20;92.50
21459;DHT22;10891;49.350;19.386;2023-04-24T08:57:51;19.10;92.70
21459;DHT22;10891;49.350;19.386;2023-04-24T09:00:19;19.00;93.00
21459;DHT22;10891;49.350;19.386;2023-04-24T09:02:48;19.00;93.40
21459;DHT22;10891;49.350;19.386;2023-04-24T09:05:16;18.80;93.00
21459;DHT22;10891;49.350;19.386;2023-04-24T09:07:53;18.50;93.00
21459;DHT22;10891;49.350;19.386;2023-04-24T09:10:21;18.10;93.30
21459;DHT22;10891;49.350;19.386;2023-04-24T09:12:50;18.20;93.30
21459;DHT22;10891;49.350;19.386;2023-04-24T09:15:18;18.10;93.40
21459;DHT22;10891;49.350;19.386;2023-04-24T09:17:46;18.10;93.50
21459;DHT22;10891;49.350;19.386;2023-04-24T09:20:13;18.20;94.00
21459;DHT22;10891;49.350;19.386;2023-04-24T09:22:40;18.00;93.80
21459;DHT22;10891;49.350;19.386;2023-04-24T09:25:10;18.00;94.10
21459;DHT22;10891;49.350;19.386;2023-04-24T09:27:41;17.80;94.00
21459;DHT22;10891;49.350;19.386;2023-04-24T09:30:10;17.40;94.50
21459;DHT22;10891;49.350;19.386;2023-04-24T09:32:37;17.10;95.40
21459;DHT22;10891;49.350;19.386;2023-04-24T09:35:09;16.60;96.80
21459;DHT22;10891;49.350;19.386;2023-04-24T09:37:37;16.40;97.60
21459;DHT22;10891;49.350;19.386;2023-04-24T09:40:14;16.10;97.90
21459;DHT22;10891;49.350;19.386;2023-04-24T09:42:43;15.80;99.30
21459;DHT22;10891;49.350;19.386;2023-04-24T09:45:12;15.60;99.20
21459;DHT22;10891;49.350;19.386;2023-04-24T09:47:40;15.60;99.90
21459;DHT22;10891;49.350;19.386;2023-04-24T09:50:19;15.60;99.90
21459;DHT22;10891;49.350;19.386;2023-04-24T09:52:55;15.40;99.90
21459;DHT22;10891;49.350;19.386;2023-04-24T09:55:25;15.40;99.90
21459;DHT22;10891;49.350;19.386;2023-04-24T09:57:54;15.30;99.60
21459;DHT22;10891;49.350;19.386;2023-04-24T10:00:22;15.40;99.70
21459;DHT22;10891;49.350;19.386;2023-04-24T10:02:53;15.40;99.60
21459;DHT22;10891;49.350;19.386;2023-04-24T10:05:24;15.50;99.90
21459;DHT22;10891;49.350;19.386;2023-04-24T10:07:51;15.60;99.90
21459;DHT22;10891;49.350;19.386;2023-04-24T10:10:19;15.70;99.90
21459;DHT22;10891;49.350;19.386;2023-04-24T10:12:47;15.60;99.90
21459;DHT22;10891;49.350;19.386;2023-04-24T10:15:15;15.40;99.90
21459;DHT22;10891;49.350;19.386;2023-04-24T10:17:47;15.20;99.90
21459;DHT22;10891;49.350;19.386;2023-04-24T10:20:19;14.90;99.90
21459;DHT22;10891;49.350;19.386;2023-04-24T10:22:48;14.80;99.90
21459;DHT22;10891;49.350;19.386;2023-04-24T10:25:20;14.80;99.90
21459;DHT22;10891;49.350;19.386;2023-04-24T10:27:50;14.90;99.90
21459;DHT22;10891;49.350;19.386;2023-04-24T10:30:18;14.90;99.90
21459;DHT22;10891;49.350;19.386;2023-04-24T10:32:47;14.80;99.90
21459;DHT22;10891;49.350;19.386;2023-04-24T10:35:16;14.60;99.90
21459;DHT22;10891;49.350;19.386;2023-04-24T10:37:48;14.50;99.90
21459;DHT22;10891;49.350;19.386;2023-04-24T10:40:18;14.30;99.90
21459;DHT22;10891;49.350;19.386;2023-04-24T10:42:49;14.20;99.90
21459;DHT22;10891;49.350;19.386;2023-04-24T10:45:19;14.10;99.90
21459;DHT22;10891;49.350;19.386;2023-04-24T10:48:01;14.00;99.90
21459;DHT22;10891;49.350;19.386;2023-04-24T10:50:30;13.80;99.90
21459;DHT22;10891;49.350;19.386;2023-04-24T10:53:13;13.70;99.90
21459;DHT22;10891;49.350;19.386;2023-04-24T10:55:44;13.60;99.90
21459;DHT22;10891;49.350;19.386;2023-04-24T10:58:13;13.60;99.90
21459;DHT22;10891;49.350;19.386;2023-04-24T11:00:42;13.40;99.90
21459;DHT22;10891;49.350;19.386;2023-04-24T11:03:24;13.30;99.90
21459;DHT22;10891;49.350;19.386;2023-04-24T11:05:54;13.30;99.90
21459;DHT22;10891;49.350;19.386;2023-04-24T11:08:23;13.30;99.90
21459;DHT22;10891;49.350;19.386;2023-04-24T11:11:02;13.10;99.90
21459;DHT22;10891;49.350;19.386;2023-04-24T11:16:33;12.70;99.90
21459;DHT22;10891;49.350;19.386;2023-04-24T11:19:01;12.60;99.90
21459;DHT22;10891;49.350;19.386;2023-04-24T11:21:31;12.60;99.90
21459;DHT22;10891;49.350;19.386;2023-04-24T11:23:58;12.60;99.90
21459;DHT22;10891;49.350;19.386;2023-04-24T11:26:45;12.60;99.90
21459;DHT22;10891;49.350;19.386;2023-04-24T11:29:12;12.60;99.90
21459;DHT22;10891;49.350;19.386;2023-04-24T11:31:41;12.40;99.90
21459;DHT22;10891;49.350;19.386;2023-04-24T11:34:14;12.40;99.90
21459;DHT22;10891;49.350;19.386;2023-04-24T11:36:43;12.30;99.90
21459;DHT22;10891;49.350;19.386;2023-04-24T11:39:11;12.30;99.90
21459;DHT22;10891;49.350;19.386;2023-04-24T11:41:38;12.20;99.90
21459;DHT22;10891;49.350;19.386;2023-04-24T11:44:08;12.10;99.90
21459;DHT22;10891;49.350;19.386;2023-04-24T11:46:35;11.90;99.90
21459;DHT22;10891;49.350;19.386;2023-04-24T11:49:06;11.90;99.90
21459;DHT22;10891;49.350;19.386;2023-04-24T11:51:34;11.80;99.90
21459;DHT22;10891;49.350;19.386;2023-04-24T11:54:01;11.80;99.90
21459;DHT22;10891;49.350;19.386;2023-04-24T11:56:28;11.90;99.90
21459;DHT22;10891;49.350;19.386;2023-04-24T11:58:55;12.00;99.90
21459;DHT22;10891;49.350;19.386;2023-04-24T12:01:22;12.10;99.90
21459;DHT22;10891;49.350;19.386;2023-04-24T12:03:50;12.20;99.90
21459;DHT22;10891;49.350;19.386;2023-04-24T12:06:18;12.50;99.90
21459;DHT22;10891;49.350;19.386;2023-04-24T12:08:46;12.60;99.90
21459;DHT22;10891;49.350;19.386;2023-04-24T12:11:16;12.70;99.90
21459;DHT22;10891;49.350;19.386;2023-04-24T12:13:44;12.80;99.90
21459;DHT22;10891;49.350;19.386;2023-04-24T12:16:12;12.90;99.90
21459;DHT22;10891;49.350;19.386;2023-04-24T12:18:44;13.10;99.90
21459;DHT22;10891;49.350;19.386;2023-04-24T12:21:20;13.30;99.90
21459;DHT22;10891;49.350;19.386;2023-04-24T12:23:48;13.60;99.90
21459;DHT22;10891;49.350;19.386;2023-04-24T12:26:17;13.70;99.90
21459;DHT22;10891;49.350;19.386;2023-04-24T12:28:47;13.80;99.90
21459;DHT22;10891;49.350;19.386;2023-04-24T12:31:15;13.50;99.90
21459;DHT22;10891;49.350;19.386;2023-04-24T12:33:42;13.40;99.90
21459;DHT22;10891;49.350;19.386;2023-04-24T12:36:10;13.20;99.90
21459;DHT22;10891;49.350;19.386;2023-04-24T12:38:43;13.10;99.90
21459;DHT22;10891;49.350;19.386;2023-04-24T12:41:13;13.00;99.90
21459;DHT22;10891;49.350;19.386;2023-04-24T12:43:51;12.70;99.90
21459;DHT22;10891;49.350;19.386;2023-04-24T12:46:18;12.60;99.90
21459;DHT22;10891;49.350;19.386;2023-04-24T12:48:45;12.50;99.90
21459;DHT22;10891;49.350;19.386;2023-04-24T12:51:12;12.50;99.90
21459;DHT22;10891;49.350;19.386;2023-04-24T12:53:40;12.60;99.90
21459;DHT22;10891;49.350;19.386;2023-04-24T12:56:07;12.50;99.90
21459;DHT22;10891;49.350;19.386;2023-04-24T12:58:34;12.40;99.90
21459;DHT22;10891;49.350;19.386;2023-04-24T13:01:01;12.20;99.90
21459;DHT22;10891;49.350;19.386;2023-04-24T13:03:28;12.30;99.90
21459;DHT22;10891;49.350;19.386;2023-04-24T13:05:55;12.10;99.90
21459;DHT22;10891;49.350;19.386;2023-04-24T13:08:22;12.10;99.90
21459;DHT22;10891;49.350;19.386;2023-04-24T13:10:50;12.00;99.90
21459;DHT22;10891;49.350;19.386;2023-04-24T13:13:19;12.00;99.90
21459;DHT22;10891;49.350;19.386;2023-04-24T13:15:46;12.00;99.90
21459;DHT22;10891;49.350;19.386;2023-04-24T13:18:13;12.10;99.90
21459;DHT22;10891;49.350;19.386;2023-04-24T13:20:40;12.20;99.90
21459;DHT22;10891;49.350;19.386;2023-04-24T13:23:07;12.20;99.90
21459;DHT22;10891;49.350;19.386;2023-04-24T13:25:36;12.20;99.90
21459;DHT22;10891;49.350;19.386;2023-04-24T13:28:05;12.10;99.90
21459;DHT22;10891;49.350;19.386;2023-04-24T13:30:32;12.00;99.90
21459;DHT22;10891;49.350;19.386;2023-04-24T13:33:00;12.00;99.90
21459;DHT22;10891;49.350;19.386;2023-04-24T13:35:27;12.00;99.90
21459;DHT22;10891;49.350;19.386;2023-04-24T13:37:53;12.00;99.90
21459;DHT22;10891;49.350;19.386;2023-04-24T13:40:20;12.00;99.90
21459;DHT22;10891;49.350;19.386;2023-04-24T13:42:47;12.00;99.90
21459;DHT22;10891;49.350;19.386;2023-04-24T13:45:15;12.00;99.90
21459;DHT22;10891;49.350;19.386;2023-04-24T13:47:42;12.00;99.90
21459;DHT22;10891;49.350;19.386;2023-04-24T13:50:10;12.00;99.90
21459;DHT22;10891;49.350;19.386;2023-04-24T13:52:37;12.10;99.90
21459;DHT22;10891;49.350;19.386;2023-04-24T13:55:04;12.10;99.90
21459;DHT22;10891;49.350;19.386;2023-04-24T13:57:31;12.10;99.90
21459;DHT22;10891;49.350;19.386;2023-04-24T13:59:58;12.10;99.90
21459;DHT22;10891;49.350;19.386;2023-04-24T14:02:28;12.00;99.90
21459;DHT22;10891;49.350;19.386;2023-04-24T14:04:55;12.00;99.90
21459;DHT22;10891;49.350;19.386;2023-04-24T14:07:23;12.00;99.90
21459;DHT22;10891;49.350;19.386;2023-04-24T14:09:50;12.00;99.90
21459;DHT22;10891;49.350;19.386;2023-04-24T14:12:17;11.80;99.90
21459;DHT22;10891;49.350;19.386;2023-04-24T14:14:46;11.70;99.90
21459;DHT22;10891;49.350;19.386;2023-04-24T14:17:13;11.70;99.90
21459;DHT22;10891;49.350;19.386;2023-04-24T14:19:42;11.60;99.90
21459;DHT22;10891;49.350;19.386;2023-04-24T14:22:09;11.70;99.90
21459;DHT22;10891;49.350;19.386;2023-04-24T14:24:36;11.50;99.90
21459;DHT22;10891;49.350;19.386;2023-04-24T14:27:03;11.50;99.90
21459;DHT22;10891;49.350;19.386;2023-04-24T14:29:30;11.60;99.90
21459;DHT22;10891;49.350;19.386;2023-04-24T14:31:57;11.60;99.90
21459;DHT22;10891;49.350;19.386;2023-04-24T14:34:24;11.60;99.90
21459;DHT22;10891;49.350;19.386;2023-04-24T14:36:52;11.60;99.90
21459;DHT22;10891;49.350;19.386;2023-04-24T14:39:20;11.60;99.90
21459;DHT22;10891;49.350;19.386;2023-04-24T14:41:50;11.50;99.90
21459;DHT22;10891;49.350;19.386;2023-04-24T14:44:17;11.50;99.90
21459;DHT22;10891;49.350;19.386;2023-04-24T14:46:44;11.40;99.90
21459;DHT22;10891;49.350;19.386;2023-04-24T14:49:11;11.30;99.90
21459;DHT22;10891;49.350;19.386;2023-04-24T14:51:38;11.20;99.90
21459;DHT22;10891;49.350;19.386;2023-04-24T14:54:08;11.20;99.90
21459;DHT22;10891;49.350;19.386;2023-04-24T14:56:35;11.10;99.90
21459;DHT22;10891;49.350;19.386;2023-04-24T14:59:02;11.00;99.90
21459;DHT22;10891;49.350;19.386;2023-04-24T15:01:29;11.00;99.90
21459;DHT22;10891;49.350;19.386;2023-04-24T15:03:56;11.00;99.90
21459;DHT22;10891;49.350;19.386;2023-04-24T15:06:23;11.00;99.90
21459;DHT22;10891;49.350;19.386;2023-04-24T15:08:50;11.00;99.90
21459;DHT22;10891;49.350;19.386;2023-04-24T15:11:19;11.00;99.90
21459;DHT22;10891;49.350;19.386;2023-04-24T15:13:46;11.00;99.90
21459;DHT22;10891;49.350;19.386;2023-04-24T15:16:13;11.10;99.90
21459;DHT22;10891;49.350;19.386;2023-04-24T15:18:40;11.10;99.90
21459;DHT22;10891;49.350;19.386;2023-04-24T15:21:07;11.20;99.90
21459;DHT22;10891;49.350;19.386;2023-04-24T15:23:34;11.10;99.90
21459;DHT22;10891;49.350;19.386;2023-04-24T15:26:01;11.00;99.90
21459;DHT22;10891;49.350;19.386;2023-04-24T15:28:29;10.80;99.90